Airfield :
LOGIN :

Register | Disclaimer

   EN    FR    IT 

 










Legend :    VFR   Marginal VFR   IFR   Intensive IFR   Very Intensive IFR
Visi :
Ceiling :
>= 8 km
>= 3000ft
5 to 8 km
1000 to 3000 ft
1500m to 5 km
500 to 1000 ft
800 to 1500m
200 to 500 ft
< 800m
< 200 ft
Symbols :   Thunderstorms  Fog  Heavy snow  Heavy precipitations  Wind > 20 kt
SIGMETs :     Misc.  Thunderstorms  Icing  Turbulence  Mountain Waves  Volcanic Ashes







- Airport Elevation : 33 ft
- IATA code : MHZ


EGUN - RAF Mildenhall

CURRENT METAR :
  • 151956Z AUTO 17007KT 9999 CLR 08/08 A3021 RMK AO2 SLP234 T00780078 $

EXPIRED METARs :
  • 151856Z AUTO 16004KT 9999 CLR 08/08 A3022 RMK AO2 SLP237 T00780078 $
  • 151756Z AUTO 15007KT 9999 CLR 09/09 A3022 RMK AO2 SLP237 T00910085 10144 20088 57010 $

TAF TAF EGUN
Valid from the 15 at 12:00 until the 16 at 18:00 UTC


151215Z 1512/1618 17009KT 9999 SKC QNH3022INS
BECMG 1523/1524 21009KT 9999 SKC QNH3016INS
TEMPO 1604/1609 5000 BR
BECMG 1611/1612 21009KT 9999 BKN010 QNH3016INS TX11/1514Z TN05/1604Z
No reported NOTAMs for that airfield.
1 SIGMET reported for the London FIR (EGTT) :
 
Severe mountain waves
EGTT SIGMET 01 VALID 151900/152300 EGRR
EGTT LONDON FIR SEV MTW FCST WI N5500 W00027 - N5429 W00019 - N5339 W00438 - N5500 W00504 - N5500 W00027 FL030/260 STNR NC=



MET'MAP, your aeronautical weather chart ! - Copyright ORBIFLY December 2007 - Disclaimer

ORBIFLY MET'MAP TEAM :

Programming & Development : Alexandra Zaïnal
Concept & Development : Baudouin d'Aumeries
Co-Development & Prog : Marc-Olivier Méhu
Technical & hardware support : Manuel Goepfert

Contact : metmap@orbifly.com




SOURCES & CREDITS :

   NOAA